sensor_id;sensor_type;location;lat;lon;timestamp;P1;durP1;ratioP1;P2;durP2;ratioP2
38208;SDS011;24016;52.102;11.584;2023-07-08T00:00:00;5.45;;;3.97;;
38208;SDS011;24016;52.102;11.584;2023-07-08T00:02:32;5.13;;;3.95;;
38208;SDS011;24016;52.102;11.584;2023-07-08T00:04:58;4.53;;;3.65;;
38208;SDS011;24016;52.102;11.584;2023-07-08T00:07:23;7.13;;;3.90;;
38208;SDS011;24016;52.102;11.584;2023-07-08T00:09:49;7.95;;;3.83;;
38208;SDS011;24016;52.102;11.584;2023-07-08T00:12:14;5.53;;;4.28;;
38208;SDS011;24016;52.102;11.584;2023-07-08T00:14:40;5.13;;;3.72;;
38208;SDS011;24016;52.102;11.584;2023-07-08T00:17:10;5.10;;;3.83;;
38208;SDS011;24016;52.102;11.584;2023-07-08T00:19:37;4.90;;;4.00;;
38208;SDS011;24016;52.102;11.584;2023-07-08T00:22:07;6.22;;;3.85;;
38208;SDS011;24016;52.102;11.584;2023-07-08T00:24:36;7.75;;;4.75;;
38208;SDS011;24016;52.102;11.584;2023-07-08T00:27:01;8.50;;;4.15;;
38208;SDS011;24016;52.102;11.584;2023-07-08T00:29:27;8.88;;;4.00;;
38208;SDS011;24016;52.102;11.584;2023-07-08T00:31:53;8.15;;;4.13;;
38208;SDS011;24016;52.102;11.584;2023-07-08T00:34:18;5.80;;;4.20;;
38208;SDS011;24016;52.102;11.584;2023-07-08T00:36:43;7.90;;;4.53;;
38208;SDS011;24016;52.102;11.584;2023-07-08T00:39:13;8.02;;;4.45;;
38208;SDS011;24016;52.102;11.584;2023-07-08T00:41:39;7.05;;;4.22;;
38208;SDS011;24016;52.102;11.584;2023-07-08T00:44:08;6.97;;;4.55;;
38208;SDS011;24016;52.102;11.584;2023-07-08T00:46:42;6.85;;;4.20;;
38208;SDS011;24016;52.102;11.584;2023-07-08T00:51:51;5.40;;;4.10;;
38208;SDS011;24016;52.102;11.584;2023-07-08T00:54:17;4.82;;;3.90;;
38208;SDS011;24016;52.102;11.584;2023-07-08T00:56:48;5.93;;;4.15;;
38208;SDS011;24016;52.102;11.584;2023-07-08T00:59:27;6.10;;;4.28;;
38208;SDS011;24016;52.102;11.584;2023-07-08T01:02:04;5.63;;;3.97;;
38208;SDS011;24016;52.102;11.584;2023-07-08T01:04:34;7.70;;;4.20;;
38208;SDS011;24016;52.102;11.584;2023-07-08T01:07:08;6.40;;;3.95;;
38208;SDS011;24016;52.102;11.584;2023-07-08T01:09:36;6.78;;;3.90;;
38208;SDS011;24016;52.102;11.584;2023-07-08T01:12:08;10.98;;;4.05;;
38208;SDS011;24016;52.102;11.584;2023-07-08T01:14:36;7.93;;;3.70;;
38208;SDS011;24016;52.102;11.584;2023-07-08T01:17:07;5.82;;;4.00;;
38208;SDS011;24016;52.102;11.584;2023-07-08T01:19:38;5.68;;;4.10;;
38208;SDS011;24016;52.102;11.584;2023-07-08T01:22:08;6.20;;;4.00;;
38208;SDS011;24016;52.102;11.584;2023-07-08T01:24:35;5.50;;;3.55;;
38208;SDS011;24016;52.102;11.584;2023-07-08T01:27:07;7.25;;;4.10;;
38208;SDS011;24016;52.102;11.584;2023-07-08T01:29:36;4.65;;;3.63;;
38208;SDS011;24016;52.102;11.584;2023-07-08T01:32:02;6.68;;;3.85;;
38208;SDS011;24016;52.102;11.584;2023-07-08T01:34:30;4.45;;;3.45;;
38208;SDS011;24016;52.102;11.584;2023-07-08T01:36:59;5.30;;;3.83;;
38208;SDS011;24016;52.102;11.584;2023-07-08T01:39:30;5.40;;;4.00;;
38208;SDS011;24016;52.102;11.584;2023-07-08T01:41:56;10.07;;;3.70;;
38208;SDS011;24016;52.102;11.584;2023-07-08T01:44:29;5.45;;;3.97;;
38208;SDS011;24016;52.102;11.584;2023-07-08T01:46:58;8.60;;;4.28;;
38208;SDS011;24016;52.102;11.584;2023-07-08T01:49:37;8.48;;;3.85;;
38208;SDS011;24016;52.102;11.584;2023-07-08T01:52:06;7.03;;;4.10;;
38208;SDS011;24016;52.102;11.584;2023-07-08T01:54:35;4.93;;;4.20;;
38208;SDS011;24016;52.102;11.584;2023-07-08T01:57:00;7.05;;;4.05;;
38208;SDS011;24016;52.102;11.584;2023-07-08T01:59:27;5.25;;;4.18;;
38208;SDS011;24016;52.102;11.584;2023-07-08T02:01:55;5.22;;;4.05;;
38208;SDS011;24016;52.102;11.584;2023-07-08T02:04:21;8.68;;;4.45;;
38208;SDS011;24016;52.102;11.584;2023-07-08T02:06:57;5.50;;;4.07;;
38208;SDS011;24016;52.102;11.584;2023-07-08T02:09:25;4.80;;;4.20;;
38208;SDS011;24016;52.102;11.584;2023-07-08T02:11:54;5.82;;;4.22;;
38208;SDS011;24016;52.102;11.584;2023-07-08T02:14:22;5.57;;;4.10;;
38208;SDS011;24016;52.102;11.584;2023-07-08T02:16:49;6.35;;;4.00;;
38208;SDS011;24016;52.102;11.584;2023-07-08T02:19:15;6.90;;;4.13;;
38208;SDS011;24016;52.102;11.584;2023-07-08T02:21:40;4.85;;;4.22;;
38208;SDS011;24016;52.102;11.584;2023-07-08T02:24:07;7.40;;;4.82;;
38208;SDS011;24016;52.102;11.584;2023-07-08T02:26:32;7.50;;;4.82;;
38208;SDS011;24016;52.102;11.584;2023-07-08T02:28:58;6.03;;;4.72;;
38208;SDS011;24016;52.102;11.584;2023-07-08T02:31:24;11.57;;;4.60;;
38208;SDS011;24016;52.102;11.584;2023-07-08T02:33:51;6.97;;;5.13;;
38208;SDS011;24016;52.102;11.584;2023-07-08T02:36:17;6.53;;;5.00;;
38208;SDS011;24016;52.102;11.584;2023-07-08T02:38:43;6.50;;;4.75;;
38208;SDS011;24016;52.102;11.584;2023-07-08T02:41:08;6.68;;;5.05;;
38208;SDS011;24016;52.102;11.584;2023-07-08T02:43:36;5.35;;;4.80;;
38208;SDS011;24016;52.102;11.584;2023-07-08T02:46:02;8.38;;;5.03;;
38208;SDS011;24016;52.102;11.584;2023-07-08T02:48:29;5.68;;;5.07;;
38208;SDS011;24016;52.102;11.584;2023-07-08T02:50:58;6.93;;;4.40;;
38208;SDS011;24016;52.102;11.584;2023-07-08T02:53:28;8.20;;;4.65;;
38208;SDS011;24016;52.102;11.584;2023-07-08T02:55:54;6.53;;;4.93;;
38208;SDS011;24016;52.102;11.584;2023-07-08T02:58:20;7.65;;;4.97;;
38208;SDS011;24016;52.102;11.584;2023-07-08T03:00:50;4.93;;;4.38;;
38208;SDS011;24016;52.102;11.584;2023-07-08T03:03:20;6.70;;;4.50;;
38208;SDS011;24016;52.102;11.584;2023-07-08T03:05:56;5.95;;;4.50;;
38208;SDS011;24016;52.102;11.584;2023-07-08T03:08:23;6.68;;;5.00;;
38208;SDS011;24016;52.102;11.584;2023-07-08T03:10:55;6.93;;;5.28;;
38208;SDS011;24016;52.102;11.584;2023-07-08T03:13:25;8.55;;;5.63;;
38208;SDS011;24016;52.102;11.584;2023-07-08T03:15:53;7.35;;;5.65;;
38208;SDS011;24016;52.102;11.584;2023-07-08T03:18:21;6.22;;;4.75;;
38208;SDS011;24016;52.102;11.584;2023-07-08T03:20:48;6.15;;;4.93;;
38208;SDS011;24016;52.102;11.584;2023-07-08T03:23:15;9.25;;;4.95;;
38208;SDS011;24016;52.102;11.584;2023-07-08T03:25:52;5.97;;;4.72;;
38208;SDS011;24016;52.102;11.584;2023-07-08T03:28:20;6.07;;;5.20;;
38208;SDS011;24016;52.102;11.584;2023-07-08T03:30:52;6.50;;;5.07;;
38208;SDS011;24016;52.102;11.584;2023-07-08T03:33:18;6.13;;;5.38;;
38208;SDS011;24016;52.102;11.584;2023-07-08T03:35:45;11.15;;;5.10;;
38208;SDS011;24016;52.102;11.584;2023-07-08T03:38:18;10.30;;;5.40;;
38208;SDS011;24016;52.102;11.584;2023-07-08T03:41:04;8.13;;;5.97;;
38208;SDS011;24016;52.102;11.584;2023-07-08T03:43:32;6.25;;;5.25;;
38208;SDS011;24016;52.102;11.584;2023-07-08T03:45:58;6.53;;;5.53;;
38208;SDS011;24016;52.102;11.584;2023-07-08T03:48:23;6.60;;;5.45;;
38208;SDS011;24016;52.102;11.584;2023-07-08T03:50:50;6.40;;;4.90;;
38208;SDS011;24016;52.102;11.584;2023-07-08T03:53:16;7.22;;;5.10;;
38208;SDS011;24016;52.102;11.584;2023-07-08T03:55:42;6.13;;;5.13;;
38208;SDS011;24016;52.102;11.584;2023-07-08T03:58:08;7.22;;;5.25;;
38208;SDS011;24016;52.102;11.584;2023-07-08T04:00:34;7.95;;;5.05;;
38208;SDS011;24016;52.102;11.584;2023-07-08T04:03:00;5.65;;;4.85;;
38208;SDS011;24016;52.102;11.584;2023-07-08T04:05:26;5.93;;;5.30;;
38208;SDS011;24016;52.102;11.584;2023-07-08T04:07:52;6.70;;;5.35;;
38208;SDS011;24016;52.102;11.584;2023-07-08T04:10:18;7.20;;;5.28;;
38208;SDS011;24016;52.102;11.584;2023-07-08T04:12:43;7.95;;;5.43;;
38208;SDS011;24016;52.102;11.584;2023-07-08T04:15:09;7.30;;;5.68;;
38208;SDS011;24016;52.102;11.584;2023-07-08T04:17:37;6.43;;;5.38;;
38208;SDS011;24016;52.102;11.584;2023-07-08T04:20:08;8.95;;;5.47;;
38208;SDS011;24016;52.102;11.584;2023-07-08T04:22:35;6.10;;;5.50;;
38208;SDS011;24016;52.102;11.584;2023-07-08T04:25:02;8.02;;;5.60;;
38208;SDS011;24016;52.102;11.584;2023-07-08T04:27:31;9.32;;;5.72;;
38208;SDS011;24016;52.102;11.584;2023-07-08T04:29:58;7.78;;;6.35;;
38208;SDS011;24016;52.102;11.584;2023-07-08T04:32:23;7.15;;;5.63;;
38208;SDS011;24016;52.102;11.584;2023-07-08T04:34:49;7.22;;;5.15;;
38208;SDS011;24016;52.102;11.584;2023-07-08T04:37:16;6.13;;;5.53;;
38208;SDS011;24016;52.102;11.584;2023-07-08T04:39:41;8.90;;;5.53;;
38208;SDS011;24016;52.102;11.584;2023-07-08T04:42:07;7.05;;;5.55;;
38208;SDS011;24016;52.102;11.584;2023-07-08T04:44:33;6.55;;;5.28;;
38208;SDS011;24016;52.102;11.584;2023-07-08T04:46:59;7.57;;;5.05;;
38208;SDS011;24016;52.102;11.584;2023-07-08T04:49:25;5.75;;;4.82;;
38208;SDS011;24016;52.102;11.584;2023-07-08T04:51:57;6.88;;;5.45;;
38208;SDS011;24016;52.102;11.584;2023-07-08T04:54:24;6.28;;;5.38;;
38208;SDS011;24016;52.102;11.584;2023-07-08T04:56:49;5.95;;;5.30;;
38208;SDS011;24016;52.102;11.584;2023-07-08T04:59:16;5.35;;;4.80;;
38208;SDS011;24016;52.102;11.584;2023-07-08T05:01:43;7.85;;;5.53;;
38208;SDS011;24016;52.102;11.584;2023-07-08T05:04:10;5.88;;;5.10;;
38208;SDS011;24016;52.102;11.584;2023-07-08T05:06:40;9.18;;;5.10;;
38208;SDS011;24016;52.102;11.584;2023-07-08T05:09:06;9.20;;;5.25;;
38208;SDS011;24016;52.102;11.584;2023-07-08T05:11:33;6.18;;;4.70;;
38208;SDS011;24016;52.102;11.584;2023-07-08T05:13:59;8.10;;;5.00;;
38208;SDS011;24016;52.102;11.584;2023-07-08T05:16:26;6.07;;;4.63;;
38208;SDS011;24016;52.102;11.584;2023-07-08T05:18:54;6.07;;;5.15;;
38208;SDS011;24016;52.102;11.584;2023-07-08T05:21:20;6.05;;;4.57;;
38208;SDS011;24016;52.102;11.584;2023-07-08T05:23:47;5.20;;;4.70;;
38208;SDS011;24016;52.102;11.584;2023-07-08T05:26:16;6.85;;;5.00;;
38208;SDS011;24016;52.102;11.584;2023-07-08T05:28:42;8.27;;;4.95;;
38208;SDS011;24016;52.102;11.584;2023-07-08T05:31:08;6.32;;;5.68;;
38208;SDS011;24016;52.102;11.584;2023-07-08T05:33:35;6.03;;;4.65;;
38208;SDS011;24016;52.102;11.584;2023-07-08T05:36:01;9.73;;;5.05;;
38208;SDS011;24016;52.102;11.584;2023-07-08T05:38:28;4.97;;;4.47;;
38208;SDS011;24016;52.102;11.584;2023-07-08T05:40:54;7.55;;;4.72;;
38208;SDS011;24016;52.102;11.584;2023-07-08T05:43:22;5.07;;;4.45;;
38208;SDS011;24016;52.102;11.584;2023-07-08T05:45:48;5.65;;;4.32;;
38208;SDS011;24016;52.102;11.584;2023-07-08T05:48:13;7.95;;;4.82;;
38208;SDS011;24016;52.102;11.584;2023-07-08T05:50:39;6.63;;;4.88;;
38208;SDS011;24016;52.102;11.584;2023-07-08T05:53:05;5.70;;;4.68;;
38208;SDS011;24016;52.102;11.584;2023-07-08T05:55:34;5.10;;;4.60;;
38208;SDS011;24016;52.102;11.584;2023-07-08T05:58:02;5.97;;;4.47;;
38208;SDS011;24016;52.102;11.584;2023-07-08T06:00:27;6.78;;;4.82;;
38208;SDS011;24016;52.102;11.584;2023-07-08T06:02:53;5.28;;;4.28;;
38208;SDS011;24016;52.102;11.584;2023-07-08T06:05:19;5.13;;;4.20;;
38208;SDS011;24016;52.102;11.584;2023-07-08T06:07:44;7.40;;;5.38;;
38208;SDS011;24016;52.102;11.584;2023-07-08T06:10:10;6.25;;;5.00;;
38208;SDS011;24016;52.102;11.584;2023-07-08T06:12:35;8.52;;;4.15;;
38208;SDS011;24016;52.102;11.584;2023-07-08T06:15:01;4.80;;;4.30;;
38208;SDS011;24016;52.102;11.584;2023-07-08T06:17:26;4.95;;;3.80;;
38208;SDS011;24016;52.102;11.584;2023-07-08T06:19:52;6.80;;;4.15;;
38208;SDS011;24016;52.102;11.584;2023-07-08T06:22:18;6.13;;;4.47;;
38208;SDS011;24016;52.102;11.584;2023-07-08T06:24:43;5.10;;;4.30;;
38208;SDS011;24016;52.102;11.584;2023-07-08T06:27:09;7.32;;;4.32;;
38208;SDS011;24016;52.102;11.584;2023-07-08T06:29:34;8.82;;;4.63;;
38208;SDS011;24016;52.102;11.584;2023-07-08T06:32:00;5.45;;;3.95;;
38208;SDS011;24016;52.102;11.584;2023-07-08T06:34:26;6.20;;;3.90;;
38208;SDS011;24016;52.102;11.584;2023-07-08T06:36:52;5.63;;;4.32;;
38208;SDS011;24016;52.102;11.584;2023-07-08T06:39:17;4.53;;;3.55;;
38208;SDS011;24016;52.102;11.584;2023-07-08T06:41:43;5.88;;;4.13;;
38208;SDS011;24016;52.102;11.584;2023-07-08T06:44:09;5.30;;;3.88;;
38208;SDS011;24016;52.102;11.584;2023-07-08T06:46:36;5.65;;;3.97;;
38208;SDS011;24016;52.102;11.584;2023-07-08T06:49:04;8.02;;;4.00;;
38208;SDS011;24016;52.102;11.584;2023-07-08T06:51:33;4.85;;;3.83;;
38208;SDS011;24016;52.102;11.584;2023-07-08T06:53:59;5.40;;;4.40;;
38208;SDS011;24016;52.102;11.584;2023-07-08T06:56:29;5.65;;;3.75;;
38208;SDS011;24016;52.102;11.584;2023-07-08T06:58:55;5.05;;;4.10;;
38208;SDS011;24016;52.102;11.584;2023-07-08T07:01:21;6.25;;;4.10;;
38208;SDS011;24016;52.102;11.584;2023-07-08T07:03:46;4.85;;;4.00;;
38208;SDS011;24016;52.102;11.584;2023-07-08T07:06:12;6.72;;;4.38;;
38208;SDS011;24016;52.102;11.584;2023-07-08T07:08:37;5.53;;;3.80;;
38208;SDS011;24016;52.102;11.584;2023-07-08T07:11:03;5.75;;;4.00;;
38208;SDS011;24016;52.102;11.584;2023-07-08T07:13:29;5.13;;;3.88;;
38208;SDS011;24016;52.102;11.584;2023-07-08T07:15:55;4.78;;;4.07;;
38208;SDS011;24016;52.102;11.584;2023-07-08T07:18:21;5.03;;;3.40;;
38208;SDS011;24016;52.102;11.584;2023-07-08T07:20:50;4.32;;;3.75;;
38208;SDS011;24016;52.102;11.584;2023-07-08T07:25:44;6.05;;;3.78;;
38208;SDS011;24016;52.102;11.584;2023-07-08T07:28:12;4.95;;;4.00;;
38208;SDS011;24016;52.102;11.584;2023-07-08T07:30:41;7.05;;;3.90;;
38208;SDS011;24016;52.102;11.584;2023-07-08T07:33:10;6.85;;;3.60;;
38208;SDS011;24016;52.102;11.584;2023-07-08T07:35:35;5.03;;;3.60;;
38208;SDS011;24016;52.102;11.584;2023-07-08T07:38:06;4.88;;;3.58;;
38208;SDS011;24016;52.102;11.584;2023-07-08T07:40:31;5.07;;;3.30;;
38208;SDS011;24016;52.102;11.584;2023-07-08T07:42:57;5.82;;;3.88;;
38208;SDS011;24016;52.102;11.584;2023-07-08T07:45:22;6.00;;;3.50;;
38208;SDS011;24016;52.102;11.584;2023-07-08T07:47:48;5.38;;;3.50;;
38208;SDS011;24016;52.102;11.584;2023-07-08T07:50:13;7.93;;;3.55;;
38208;SDS011;24016;52.102;11.584;2023-07-08T07:52:40;5.10;;;3.55;;
38208;SDS011;24016;52.102;11.584;2023-07-08T07:55:05;4.38;;;3.25;;
38208;SDS011;24016;52.102;11.584;2023-07-08T07:57:32;6.55;;;3.70;;
38208;SDS011;24016;52.102;11.584;2023-07-08T07:59:59;6.95;;;3.70;;
38208;SDS011;24016;52.102;11.584;2023-07-08T08:02:26;6.15;;;3.55;;
38208;SDS011;24016;52.102;11.584;2023-07-08T08:04:52;5.63;;;3.25;;
38208;SDS011;24016;52.102;11.584;2023-07-08T08:07:17;5.80;;;3.70;;
38208;SDS011;24016;52.102;11.584;2023-07-08T08:09:43;5.32;;;3.65;;
38208;SDS011;24016;52.102;11.584;2023-07-08T08:12:10;4.45;;;2.95;;
38208;SDS011;24016;52.102;11.584;2023-07-08T08:14:36;6.22;;;3.67;;
38208;SDS011;24016;52.102;11.584;2023-07-08T08:17:02;4.07;;;3.28;;
38208;SDS011;24016;52.102;11.584;2023-07-08T08:19:29;4.57;;;3.45;;
38208;SDS011;24016;52.102;11.584;2023-07-08T08:21:54;5.82;;;3.38;;
38208;SDS011;24016;52.102;11.584;2023-07-08T08:24:20;4.00;;;3.20;;
38208;SDS011;24016;52.102;11.584;2023-07-08T08:26:45;4.75;;;2.80;;
38208;SDS011;24016;52.102;11.584;2023-07-08T08:29:12;4.45;;;2.72;;
38208;SDS011;24016;52.102;11.584;2023-07-08T08:31:39;5.60;;;2.72;;
38208;SDS011;24016;52.102;11.584;2023-07-08T08:34:04;6.85;;;2.97;;
38208;SDS011;24016;52.102;11.584;2023-07-08T08:36:30;5.82;;;3.08;;
38208;SDS011;24016;52.102;11.584;2023-07-08T08:38:55;4.97;;;2.92;;
38208;SDS011;24016;52.102;11.584;2023-07-08T08:41:28;5.32;;;3.13;;
38208;SDS011;24016;52.102;11.584;2023-07-08T08:43:56;8.27;;;3.05;;
38208;SDS011;24016;52.102;11.584;2023-07-08T08:46:32;4.35;;;3.03;;
38208;SDS011;24016;52.102;11.584;2023-07-08T08:49:13;4.20;;;3.40;;
38208;SDS011;24016;52.102;11.584;2023-07-08T08:52:02;4.70;;;2.83;;
38208;SDS011;24016;52.102;11.584;2023-07-08T08:54:37;6.07;;;3.17;;
38208;SDS011;24016;52.102;11.584;2023-07-08T09:03:54;5.05;;;3.17;;
38208;SDS011;24016;52.102;11.584;2023-07-08T09:08:50;6.63;;;3.78;;
38208;SDS011;24016;52.102;11.584;2023-07-08T09:14:07;4.53;;;3.38;;
38208;SDS011;24016;52.102;11.584;2023-07-08T09:19:30;3.22;;;2.88;;
38208;SDS011;24016;52.102;11.584;2023-07-08T09:22:01;5.40;;;4.15;;
38208;SDS011;24016;52.102;11.584;2023-07-08T09:24:43;6.20;;;3.15;;
38208;SDS011;24016;52.102;11.584;2023-07-08T09:27:22;4.97;;;3.83;;
38208;SDS011;24016;52.102;11.584;2023-07-08T09:29:47;4.75;;;3.00;;
38208;SDS011;24016;52.102;11.584;2023-07-08T09:34:43;5.05;;;3.50;;
38208;SDS011;24016;52.102;11.584;2023-07-08T09:37:29;6.50;;;3.20;;
38208;SDS011;24016;52.102;11.584;2023-07-08T09:39:57;4.03;;;2.97;;
38208;SDS011;24016;52.102;11.584;2023-07-08T09:42:25;4.72;;;2.85;;
38208;SDS011;24016;52.102;11.584;2023-07-08T09:45:08;3.92;;;2.63;;
38208;SDS011;24016;52.102;11.584;2023-07-08T09:47:40;4.82;;;2.97;;
38208;SDS011;24016;52.102;11.584;2023-07-08T09:50:15;4.15;;;2.90;;
38208;SDS011;24016;52.102;11.584;2023-07-08T09:52:43;5.50;;;3.30;;
38208;SDS011;24016;52.102;11.584;2023-07-08T09:55:11;4.10;;;3.10;;
38208;SDS011;24016;52.102;11.584;2023-07-08T09:57:37;8.38;;;3.20;;
38208;SDS011;24016;52.102;11.584;2023-07-08T10:00:08;4.88;;;2.90;;
38208;SDS011;24016;52.102;11.584;2023-07-08T10:02:41;4.50;;;3.10;;
38208;SDS011;24016;52.102;11.584;2023-07-08T10:05:22;5.38;;;3.17;;
38208;SDS011;24016;52.102;11.584;2023-07-08T10:07:52;5.07;;;3.10;;
38208;SDS011;24016;52.102;11.584;2023-07-08T10:10:22;5.28;;;3.28;;
38208;SDS011;24016;52.102;11.584;2023-07-08T10:12:56;7.57;;;3.17;;
38208;SDS011;24016;52.102;11.584;2023-07-08T10:15:26;3.95;;;2.70;;
38208;SDS011;24016;52.102;11.584;2023-07-08T10:17:57;6.78;;;3.08;;
38208;SDS011;24016;52.102;11.584;2023-07-08T10:20:22;8.02;;;2.95;;
38208;SDS011;24016;52.102;11.584;2023-07-08T10:22:56;5.90;;;2.92;;
38208;SDS011;24016;52.102;11.584;2023-07-08T10:25:58;17.27;;;9.63;;
38208;SDS011;24016;52.102;11.584;2023-07-08T10:31:27;7.57;;;3.80;;
38208;SDS011;24016;52.102;11.584;2023-07-08T10:34:20;5.47;;;3.25;;
38208;SDS011;24016;52.102;11.584;2023-07-08T10:36:53;4.72;;;3.17;;
38208;SDS011;24016;52.102;11.584;2023-07-08T10:39:34;4.28;;;2.85;;
38208;SDS011;24016;52.102;11.584;2023-07-08T10:42:23;4.40;;;2.92;;
38208;SDS011;24016;52.102;11.584;2023-07-08T10:45:05;4.18;;;2.95;;
38208;SDS011;24016;52.102;11.584;2023-07-08T10:47:48;4.65;;;2.92;;
38208;SDS011;24016;52.102;11.584;2023-07-08T10:50:39;6.47;;;2.97;;
38208;SDS011;24016;52.102;11.584;2023-07-08T10:53:50;4.20;;;3.03;;
38208;SDS011;24016;52.102;11.584;2023-07-08T10:56:31;4.95;;;3.10;;
38208;SDS011;24016;52.102;11.584;2023-07-08T10:59:16;5.85;;;3.28;;
38208;SDS011;24016;52.102;11.584;2023-07-08T11:04:59;10.63;;;3.37;;
38208;SDS011;24016;52.102;11.584;2023-07-08T11:07:42;4.40;;;2.72;;
38208;SDS011;24016;52.102;11.584;2023-07-08T11:12:45;5.85;;;2.80;;
38208;SDS011;24016;52.102;11.584;2023-07-08T11:15:16;4.53;;;3.08;;
38208;SDS011;24016;52.102;11.584;2023-07-08T11:17:58;7.75;;;2.78;;
38208;SDS011;24016;52.102;11.584;2023-07-08T11:20:37;5.55;;;3.10;;
38208;SDS011;24016;52.102;11.584;2023-07-08T11:23:30;6.53;;;3.20;;
38208;SDS011;24016;52.102;11.584;2023-07-08T11:26:14;6.37;;;3.47;;
38208;SDS011;24016;52.102;11.584;2023-07-08T11:28:53;3.72;;;2.60;;
38208;SDS011;24016;52.102;11.584;2023-07-08T11:31:22;5.50;;;2.83;;
38208;SDS011;24016;52.102;11.584;2023-07-08T11:33:48;3.83;;;2.72;;
38208;SDS011;24016;52.102;11.584;2023-07-08T11:36:15;3.85;;;3.22;;
38208;SDS011;24016;52.102;11.584;2023-07-08T11:38:48;5.45;;;2.90;;
38208;SDS011;24016;52.102;11.584;2023-07-08T11:41:17;3.50;;;2.78;;
38208;SDS011;24016;52.102;11.584;2023-07-08T11:43:48;8.40;;;4.40;;
38208;SDS011;24016;52.102;11.584;2023-07-08T11:46:24;5.45;;;3.58;;
38208;SDS011;24016;52.102;11.584;2023-07-08T11:48:53;5.78;;;3.40;;
38208;SDS011;24016;52.102;11.584;2023-07-08T11:51:28;5.30;;;3.80;;
38208;SDS011;24016;52.102;11.584;2023-07-08T11:56:29;4.13;;;3.45;;
38208;SDS011;24016;52.102;11.584;2023-07-08T11:59:32;6.15;;;4.10;;
38208;SDS011;24016;52.102;11.584;2023-07-08T12:02:17;5.13;;;3.85;;
38208;SDS011;24016;52.102;11.584;2023-07-08T12:05:11;5.30;;;3.95;;
38208;SDS011;24016;52.102;11.584;2023-07-08T12:07:45;6.47;;;4.38;;
38208;SDS011;24016;52.102;11.584;2023-07-08T12:10:25;6.05;;;4.43;;
38208;SDS011;24016;52.102;11.584;2023-07-08T12:13:00;6.93;;;4.45;;
38208;SDS011;24016;52.102;11.584;2023-07-08T12:15:27;4.82;;;4.20;;
38208;SDS011;24016;52.102;11.584;2023-07-08T12:17:55;11.60;;;4.45;;
38208;SDS011;24016;52.102;11.584;2023-07-08T12:20:31;10.25;;;4.40;;
38208;SDS011;24016;52.102;11.584;2023-07-08T12:22:59;7.10;;;3.50;;
38208;SDS011;24016;52.102;11.584;2023-07-08T12:25:27;4.15;;;2.90;;
38208;SDS011;24016;52.102;11.584;2023-07-08T12:27:55;4.70;;;2.80;;
38208;SDS011;24016;52.102;11.584;2023-07-08T12:30:22;4.88;;;3.22;;
38208;SDS011;24016;52.102;11.584;2023-07-08T12:32:48;3.50;;;2.70;;
38208;SDS011;24016;52.102;11.584;2023-07-08T12:35:32;4.95;;;2.70;;
38208;SDS011;24016;52.102;11.584;2023-07-08T12:38:14;4.00;;;2.80;;
38208;SDS011;24016;52.102;11.584;2023-07-08T12:40:57;3.95;;;2.70;;
38208;SDS011;24016;52.102;11.584;2023-07-08T12:43:24;4.93;;;2.75;;
38208;SDS011;24016;52.102;11.584;2023-07-08T12:45:50;3.95;;;2.70;;
38208;SDS011;24016;52.102;11.584;2023-07-08T12:48:16;5.10;;;2.63;;
38208;SDS011;24016;52.102;11.584;2023-07-08T12:50:41;4.70;;;2.67;;
38208;SDS011;24016;52.102;11.584;2023-07-08T12:53:07;3.67;;;2.55;;
38208;SDS011;24016;52.102;11.584;2023-07-08T12:55:37;2.88;;;2.28;;
38208;SDS011;24016;52.102;11.584;2023-07-08T12:58:12;3.83;;;2.42;;
38208;SDS011;24016;52.102;11.584;2023-07-08T13:00:41;3.10;;;2.60;;
38208;SDS011;24016;52.102;11.584;2023-07-08T13:03:08;3.50;;;2.72;;
38208;SDS011;24016;52.102;11.584;2023-07-08T13:05:38;4.05;;;2.80;;
38208;SDS011;24016;52.102;11.584;2023-07-08T13:08:04;4.18;;;2.67;;
38208;SDS011;24016;52.102;11.584;2023-07-08T13:10:31;4.93;;;2.72;;
38208;SDS011;24016;52.102;11.584;2023-07-08T13:13:00;5.65;;;2.70;;
38208;SDS011;24016;52.102;11.584;2023-07-08T13:15:30;3.75;;;2.80;;
38208;SDS011;24016;52.102;11.584;2023-07-08T13:18:03;3.88;;;2.70;;
38208;SDS011;24016;52.102;11.584;2023-07-08T13:20:28;5.03;;;2.95;;
38208;SDS011;24016;52.102;11.584;2023-07-08T13:22:55;3.40;;;2.33;;
38208;SDS011;24016;52.102;11.584;2023-07-08T13:25:26;4.80;;;2.53;;
38208;SDS011;24016;52.102;11.584;2023-07-08T13:28:00;4.80;;;2.78;;
38208;SDS011;24016;52.102;11.584;2023-07-08T13:30:38;4.85;;;3.00;;
38208;SDS011;24016;52.102;11.584;2023-07-08T13:33:04;3.85;;;2.60;;
38208;SDS011;24016;52.102;11.584;2023-07-08T13:35:38;3.28;;;2.58;;
38208;SDS011;24016;52.102;11.584;2023-07-08T13:38:05;3.47;;;2.60;;
38208;SDS011;24016;52.102;11.584;2023-07-08T13:40:37;3.70;;;2.60;;
38208;SDS011;24016;52.102;11.584;2023-07-08T13:43:10;4.70;;;2.30;;
38208;SDS011;24016;52.102;11.584;2023-07-08T13:45:35;4.85;;;2.47;;
38208;SDS011;24016;52.102;11.584;2023-07-08T13:48:02;4.60;;;2.50;;
38208;SDS011;24016;52.102;11.584;2023-07-08T13:50:35;4.40;;;2.70;;
38208;SDS011;24016;52.102;11.584;2023-07-08T13:53:18;3.78;;;2.38;;
38208;SDS011;24016;52.102;11.584;2023-07-08T13:58:14;4.00;;;2.50;;
38208;SDS011;24016;52.102;11.584;2023-07-08T14:00:41;3.20;;;2.20;;
38208;SDS011;24016;52.102;11.584;2023-07-08T14:03:11;6.78;;;2.78;;
38208;SDS011;24016;52.102;11.584;2023-07-08T14:05:40;3.92;;;2.60;;
38208;SDS011;24016;52.102;11.584;2023-07-08T14:08:12;4.88;;;2.85;;
38208;SDS011;24016;52.102;11.584;2023-07-08T14:10:39;5.97;;;2.47;;
38208;SDS011;24016;52.102;11.584;2023-07-08T14:13:05;3.80;;;2.70;;
38208;SDS011;24016;52.102;11.584;2023-07-08T14:15:30;3.67;;;2.65;;
38208;SDS011;24016;52.102;11.584;2023-07-08T14:17:57;3.83;;;2.70;;
38208;SDS011;24016;52.102;11.584;2023-07-08T14:20:25;4.00;;;2.70;;
38208;SDS011;24016;52.102;11.584;2023-07-08T14:22:52;2.95;;;2.35;;
38208;SDS011;24016;52.102;11.584;2023-07-08T14:25:18;3.65;;;2.80;;
38208;SDS011;24016;52.102;11.584;2023-07-08T14:27:46;3.47;;;2.67;;
38208;SDS011;24016;52.102;11.584;2023-07-08T14:30:11;5.00;;;2.78;;
38208;SDS011;24016;52.102;11.584;2023-07-08T14:32:37;4.50;;;2.92;;
38208;SDS011;24016;52.102;11.584;2023-07-08T14:35:22;4.32;;;2.80;;
38208;SDS011;24016;52.102;11.584;2023-07-08T14:37:50;5.10;;;2.92;;
38208;SDS011;24016;52.102;11.584;2023-07-08T14:40:19;3.70;;;2.67;;
38208;SDS011;24016;52.102;11.584;2023-07-08T14:42:52;4.35;;;2.50;;
38208;SDS011;24016;52.102;11.584;2023-07-08T14:45:22;3.13;;;2.50;;
38208;SDS011;24016;52.102;11.584;2023-07-08T14:47:48;4.00;;;2.63;;
38208;SDS011;24016;52.102;11.584;2023-07-08T14:50:14;3.67;;;2.97;;
38208;SDS011;24016;52.102;11.584;2023-07-08T14:52:40;7.20;;;2.90;;
38208;SDS011;24016;52.102;11.584;2023-07-08T14:55:05;5.22;;;3.22;;
38208;SDS011;24016;52.102;11.584;2023-07-08T14:57:33;3.20;;;2.55;;
38208;SDS011;24016;52.102;11.584;2023-07-08T15:00:04;4.13;;;2.65;;
38208;SDS011;24016;52.102;11.584;2023-07-08T15:02:30;5.07;;;2.75;;
38208;SDS011;24016;52.102;11.584;2023-07-08T15:04:56;4.00;;;2.70;;
38208;SDS011;24016;52.102;11.584;2023-07-08T15:07:22;7.18;;;2.83;;
38208;SDS011;24016;52.102;11.584;2023-07-08T15:09:48;5.13;;;2.88;;
38208;SDS011;24016;52.102;11.584;2023-07-08T15:12:13;3.65;;;3.08;;
38208;SDS011;24016;52.102;11.584;2023-07-08T15:14:39;3.75;;;2.90;;
38208;SDS011;24016;52.102;11.584;2023-07-08T15:17:09;4.05;;;2.95;;
38208;SDS011;24016;52.102;11.584;2023-07-08T15:19:40;4.60;;;3.00;;
38208;SDS011;24016;52.102;11.584;2023-07-08T15:22:06;4.10;;;2.67;;